Terminal Aerodrome Forecast
Issued by NWS

Home | Current Version | Previous Version | Text Only | Print | Product List | Glossary On
Versions: 1 2 3 4 5 6 7 8 9 10 11 12 13 14 15 16 17 18 19
215
FTUS45 KRIW 231921 AAA
TAFBPI
TAF AMD
KBPI 231921Z 2319/2418 VRB06KT P6SM SCT120 BKN200
     FM240000 VRB06KT P6SM SCT050 BKN100
     FM240800 29006KT P6SM VCSH FEW005 SCT060 BKN150=

USA.gov is the U.S. government's official web portal to all federal, state and local government web resources and services.